createdAt,value
2018-04-11T00:00:34.948Z,0
2018-04-11T00:01:15.399Z,0
2018-04-11T00:01:55.768Z,0
2018-04-11T00:02:36.198Z,0
2018-04-11T00:03:16.648Z,0
2018-04-11T00:03:57.049Z,0
2018-04-11T00:04:37.427Z,0
2018-04-11T00:05:17.877Z,0
2018-04-11T00:05:58.265Z,0
2018-04-11T00:06:38.796Z,0
2018-04-11T00:07:19.233Z,0
2018-04-11T00:07:59.563Z,0
2018-04-11T00:08:39.950Z,0
2018-04-11T00:09:20.398Z,0
2018-04-11T00:10:01.166Z,0
2018-04-11T00:10:41.246Z,0
2018-04-11T00:11:21.845Z,0
2018-04-11T00:12:02.134Z,0
2018-04-11T00:12:42.577Z,0
2018-04-11T00:13:23.097Z,0
2018-04-11T00:14:03.331Z,0
2018-04-11T00:14:43.716Z,0
2018-04-11T00:15:24.230Z,0
2018-04-11T00:16:04.561Z,0
2018-04-11T00:16:45.225Z,0
2018-04-11T00:17:25.765Z,0
2018-04-11T00:18:06.141Z,0
2018-04-11T00:18:46.576Z,0
2018-04-11T00:19:26.952Z,0
2018-04-11T00:20:07.425Z,0
2018-04-11T00:20:47.757Z,0
2018-04-11T00:21:28.118Z,0
2018-04-11T00:22:08.531Z,0
2018-04-11T00:22:51.866Z,0
2018-04-11T00:23:29.678Z,0
2018-04-11T00:24:10.078Z,0
2018-04-11T00:24:50.417Z,0
2018-04-11T00:25:30.888Z,0
2018-04-11T00:26:11.240Z,0
2018-04-11T00:26:51.641Z,0
2018-04-11T00:27:32.035Z,0
2018-04-11T00:28:12.439Z,0
2018-04-11T00:28:53.019Z,0
2018-04-11T00:29:33.391Z,0
2018-04-11T00:30:13.712Z,0
2018-04-11T00:30:54.165Z,0
2018-04-11T00:31:34.583Z,0
2018-04-11T00:32:14.944Z,0
2018-04-11T00:32:55.367Z,0
2018-04-11T00:33:35.719Z,0
2018-04-11T00:34:16.111Z,0
2018-04-11T00:34:56.455Z,0
2018-04-11T00:35:36.949Z,0
2018-04-11T00:36:17.374Z,0
2018-04-11T00:36:57.691Z,0
2018-04-11T00:37:38.131Z,0
2018-04-11T00:38:18.616Z,0
2018-04-11T00:38:58.880Z,0
2018-04-11T00:39:39.318Z,0
2018-04-11T00:40:19.745Z,0
2018-04-11T00:41:00.073Z,0
2018-04-11T00:41:40.494Z,0
2018-04-11T00:42:20.843Z,0
2018-04-11T00:43:01.242Z,0
2018-04-11T00:43:41.596Z,0
2018-04-11T00:44:22.007Z,0
2018-04-11T00:45:02.446Z,0
2018-04-11T00:45:42.845Z,0
2018-04-11T00:46:23.272Z,0
2018-04-11T00:47:03.684Z,0
2018-04-11T00:47:44.038Z,0
2018-04-11T00:48:24.431Z,0
2018-04-11T00:49:04.787Z,0
2018-04-11T00:49:45.195Z,0
2018-04-11T00:50:25.633Z,0
2018-04-11T00:51:05.984Z,0
2018-04-11T00:51:46.321Z,0
2018-04-11T00:52:26.738Z,0
2018-04-11T00:53:07.165Z,0
2018-04-11T00:53:47.581Z,0
2018-04-11T00:54:27.912Z,0
2018-04-11T00:55:08.297Z,0
2018-04-11T00:55:48.683Z,0
2018-04-11T00:56:29.119Z,0
2018-04-11T00:57:09.560Z,0
2018-04-11T00:57:50.464Z,0
2018-04-11T00:58:30.347Z,0
2018-04-11T00:59:10.728Z,0
2018-04-11T00:59:51.128Z,0
2018-04-11T01:00:31.456Z,0
2018-04-11T01:01:11.894Z,0
2018-04-11T01:01:52.282Z,0
2018-04-11T01:02:32.643Z,0
2018-04-11T01:03:13.065Z,0
2018-04-11T01:03:53.438Z,0
2018-04-11T01:04:33.838Z,0
2018-04-11T01:05:14.279Z,0
2018-04-11T01:05:54.661Z,0
2018-04-11T01:06:35.051Z,0
2018-04-11T01:07:15.441Z,0
2018-04-11T01:07:55.838Z,0
2018-04-11T01:08:36.251Z,0
2018-04-11T01:09:16.654Z,0
2018-04-11T01:09:57.132Z,0
2018-04-11T01:10:37.521Z,0
2018-04-11T01:11:17.862Z,0
2018-04-11T01:11:58.272Z,0
2018-04-11T01:12:38.692Z,0
2018-04-11T01:13:19.053Z,0
2018-04-11T01:13:59.395Z,0
2018-04-11T01:14:39.844Z,0
2018-04-11T01:15:20.215Z,0
2018-04-11T01:16:00.645Z,0
2018-04-11T01:16:41.036Z,0
2018-04-11T01:17:21.437Z,0
2018-04-11T01:18:01.789Z,0
2018-04-11T01:18:42.158Z,0
2018-04-11T01:19:22.607Z,0
2018-04-11T01:20:02.940Z,0
2018-04-11T01:20:43.345Z,0
2018-04-11T01:21:23.754Z,0
2018-04-11T01:22:04.247Z,0
2018-04-11T01:22:44.565Z,0
2018-04-11T01:23:24.933Z,0
2018-04-11T01:24:05.294Z,0
2018-04-11T01:24:45.737Z,0
2018-04-11T01:25:26.070Z,0
2018-04-11T01:26:06.526Z,0
2018-04-11T01:26:46.858Z,0
2018-04-11T01:27:27.285Z,0
2018-04-11T01:28:07.683Z,0
2018-04-11T01:28:48.033Z,0
2018-04-11T01:29:28.418Z,0
2018-04-11T01:30:08.819Z,0
2018-04-11T01:30:49.237Z,0
2018-04-11T01:31:29.594Z,0
2018-04-11T01:32:10.034Z,0
2018-04-11T01:32:50.411Z,0
2018-04-11T01:33:30.841Z,0
2018-04-11T01:34:11.282Z,0
2018-04-11T01:34:51.606Z,0
2018-04-11T01:35:31.984Z,0
2018-04-11T01:36:12.395Z,0
2018-04-11T01:36:52.773Z,0
2018-04-11T01:37:33.243Z,0
2018-04-11T01:38:13.635Z,0
2018-04-11T01:38:53.972Z,0
2018-04-11T01:39:34.357Z,0
2018-04-11T01:40:14.801Z,0
2018-04-11T01:40:55.155Z,0
2018-04-11T01:41:35.570Z,0
2018-04-11T01:42:15.925Z,0
2018-04-11T01:42:56.419Z,0
2018-04-11T01:43:38.063Z,0
2018-04-11T01:44:19.553Z,0
2018-04-11T01:45:00.348Z,0
2018-04-11T01:45:41.213Z,0
2018-04-11T01:46:21.765Z,0
2018-04-11T01:47:02.162Z,0
2018-04-11T01:47:42.568Z,0
2018-04-11T01:48:23.093Z,0
2018-04-11T01:49:03.596Z,0
2018-04-11T01:49:44.041Z,0
2018-04-11T01:50:24.425Z,0
2018-04-11T01:51:04.837Z,0
2018-04-11T01:51:47.674Z,0
2018-04-11T01:52:28.758Z,0
2018-04-11T01:53:17.014Z,0
2018-04-11T01:53:57.692Z,0
2018-04-11T01:54:38.229Z,0
2018-04-11T01:55:18.640Z,0
2018-04-11T01:55:59.162Z,0
2018-04-11T01:56:39.616Z,0
2018-04-11T01:57:19.989Z,0
2018-04-11T01:58:00.484Z,0
2018-04-11T01:58:40.742Z,0
2018-04-11T01:59:21.335Z,0
2018-04-11T02:00:01.482Z,0
2018-04-11T02:00:45.342Z,0
2018-04-11T02:01:24.866Z,0
2018-04-11T02:02:05.221Z,0
2018-04-11T02:02:45.998Z,0
2018-04-11T02:03:26.388Z,0
2018-04-11T02:04:06.838Z,0
2018-04-11T02:04:47.190Z,0
2018-04-11T02:05:27.859Z,0
2018-04-11T02:06:08.303Z,0
2018-04-11T02:06:48.788Z,0
2018-04-11T02:07:29.164Z,0
2018-04-11T02:08:09.521Z,0
2018-04-11T02:08:50.004Z,0
2018-04-11T02:09:32.155Z,0
2018-04-11T02:10:12.456Z,0
2018-04-11T02:10:53.010Z,0
2018-04-11T02:11:33.327Z,0
2018-04-11T02:12:13.708Z,0
2018-04-11T02:12:54.121Z,0
2018-04-11T02:13:34.446Z,0
2018-04-11T02:14:14.876Z,0
2018-04-11T02:14:55.269Z,0
2018-04-11T02:15:35.638Z,0
2018-04-11T02:16:16.022Z,0
2018-04-11T02:16:56.460Z,0
2018-04-11T02:17:36.842Z,0
2018-04-11T02:18:17.289Z,0
2018-04-11T02:18:57.632Z,0
2018-04-11T02:19:38.134Z,0
2018-04-11T02:20:18.527Z,0
2018-04-11T02:20:58.913Z,0
2018-04-11T02:21:39.298Z,0
2018-04-11T02:22:19.656Z,0
2018-04-11T02:23:00.040Z,0
2018-04-11T02:23:40.448Z,0
2018-04-11T02:24:20.860Z,0
2018-04-11T02:25:01.236Z,0
2018-04-11T02:25:41.626Z,0
2018-04-11T02:26:22.051Z,0
2018-04-11T02:27:02.455Z,0
2018-04-11T02:27:42.872Z,0
2018-04-11T02:28:23.221Z,0
2018-04-11T02:29:03.597Z,0
2018-04-11T02:29:44.028Z,0
2018-04-11T02:30:24.406Z,0
2018-04-11T02:31:04.926Z,0
2018-04-11T02:31:45.294Z,0
2018-04-11T02:32:25.676Z,0
2018-04-11T02:33:06.086Z,0
2018-04-11T02:33:46.448Z,0
2018-04-11T02:34:28.081Z,0
2018-04-11T02:35:08.355Z,0
2018-04-11T02:35:48.765Z,0
2018-04-11T02:36:29.154Z,0
2018-04-11T02:37:09.526Z,0
2018-04-11T02:37:49.941Z,0
2018-04-11T02:38:30.320Z,0
2018-04-11T02:39:10.748Z,0
2018-04-11T02:39:51.144Z,0
2018-04-11T02:40:31.551Z,0
2018-04-11T02:41:11.931Z,0
2018-04-11T02:41:52.353Z,0
2018-04-11T02:42:32.714Z,0
2018-04-11T02:43:13.137Z,0
2018-04-11T02:43:53.499Z,0
2018-04-11T02:44:33.895Z,0
2018-04-11T02:45:14.294Z,0
2018-04-11T02:45:54.688Z,0
2018-04-11T02:46:35.090Z,0
2018-04-11T02:47:15.501Z,0
2018-04-11T02:47:55.907Z,0
2018-04-11T02:48:36.330Z,0
2018-04-11T02:49:16.723Z,0
2018-04-11T02:49:57.104Z,0
2018-04-11T02:50:37.459Z,0
2018-04-11T02:51:17.857Z,0
2018-04-11T02:51:58.288Z,0
2018-04-11T02:52:38.650Z,0
2018-04-11T02:53:19.058Z,0
2018-04-11T02:53:59.465Z,0
2018-04-11T02:54:39.918Z,0
2018-04-11T02:55:20.340Z,0
2018-04-11T02:56:00.694Z,0
2018-04-11T02:56:41.091Z,0
2018-04-11T02:57:21.495Z,0
2018-04-11T02:58:01.893Z,0
2018-04-11T02:58:42.286Z,0
2018-04-11T02:59:22.720Z,0
2018-04-11T03:00:03.084Z,0
2018-04-11T03:00:43.524Z,0
2018-04-11T03:01:23.941Z,0
2018-04-11T03:02:04.394Z,0
2018-04-11T03:02:44.787Z,0
2018-04-11T03:03:25.192Z,0
2018-04-11T03:04:05.576Z,0
2018-04-11T03:04:45.975Z,0
2018-04-11T03:05:26.398Z,0
2018-04-11T03:06:06.829Z,0
2018-04-11T03:06:47.280Z,0
2018-04-11T03:07:27.696Z,0
2018-04-11T03:08:08.120Z,0
2018-04-11T03:08:48.508Z,0
2018-04-11T03:09:28.932Z,0
2018-04-11T03:10:09.337Z,0
2018-04-11T03:10:49.776Z,0
2018-04-11T03:11:30.141Z,0
2018-04-11T03:12:10.570Z,0
2018-04-11T03:12:50.973Z,0
2018-04-11T03:13:31.352Z,0
2018-04-11T03:14:11.774Z,0
2018-04-11T03:14:52.192Z,0
2018-04-11T03:15:32.618Z,0
2018-04-11T03:16:12.966Z,0
2018-04-11T03:16:53.365Z,0
2018-04-11T03:17:33.789Z,0
2018-04-11T03:18:14.225Z,0
2018-04-11T03:18:54.593Z,0
2018-04-11T03:19:35.017Z,0
2018-04-11T03:20:15.420Z,0
2018-04-11T03:20:55.878Z,0
2018-04-11T03:21:36.206Z,0
2018-04-11T03:22:16.614Z,0
2018-04-11T03:22:57.038Z,0
2018-04-11T03:23:37.457Z,0
2018-04-11T03:24:17.919Z,0
2018-04-11T03:24:58.301Z,0
2018-04-11T03:25:38.767Z,0
2018-04-11T03:26:19.101Z,0
2018-04-11T03:26:59.507Z,0
2018-04-11T03:29:41.578Z,0
2018-04-11T03:30:23.471Z,0
2018-04-11T03:31:03.880Z,0
2018-04-11T03:31:44.335Z,0
2018-04-11T03:32:24.796Z,0
2018-04-11T03:33:05.176Z,0
2018-04-11T03:33:45.579Z,0
2018-04-11T03:34:25.994Z,0
2018-04-11T03:35:06.374Z,0
2018-04-11T03:35:46.751Z,0
2018-04-11T03:36:27.146Z,0
2018-04-11T03:37:07.562Z,0
2018-04-11T03:37:47.957Z,0
2018-04-11T03:38:28.365Z,0
2018-04-11T03:39:08.780Z,0
2018-04-11T03:39:49.201Z,0
2018-04-11T03:40:29.612Z,0
2018-04-11T03:41:10.011Z,0
2018-04-11T03:41:50.406Z,0
2018-04-11T03:42:30.784Z,0
2018-04-11T03:43:11.173Z,0
2018-04-11T03:43:51.586Z,0
2018-04-11T03:44:31.976Z,0
2018-04-11T03:45:12.436Z,0
2018-04-11T03:45:52.780Z,0
2018-04-11T03:46:33.182Z,0
2018-04-11T03:47:13.569Z,0
2018-04-11T03:47:53.995Z,0
2018-04-11T03:48:34.402Z,0
2018-04-11T03:49:14.816Z,0
2018-04-11T03:49:55.205Z,0
2018-04-11T03:50:35.625Z,0
2018-04-11T03:51:15.996Z,0
2018-04-11T03:51:56.398Z,0
2018-04-11T03:52:36.846Z,0
2018-04-11T03:53:17.225Z,0
2018-04-11T03:53:57.591Z,0
2018-04-11T03:54:37.985Z,0
2018-04-11T03:55:18.398Z,0
2018-04-11T03:55:58.858Z,0
2018-04-11T03:56:39.180Z,0
2018-04-11T03:57:19.584Z,0
2018-04-11T03:57:59.993Z,0
2018-04-11T03:58:40.427Z,0
2018-04-11T03:59:20.798Z,0
2018-04-11T04:00:01.211Z,0
2018-04-11T04:00:41.634Z,0
2018-04-11T04:01:22.047Z,0
2018-04-11T04:41:46.457Z,0
2018-04-11T04:42:26.820Z,0
2018-04-11T04:43:07.267Z,0
2018-04-11T04:43:47.675Z,0
2018-04-11T04:44:28.053Z,0
2018-04-11T04:45:08.476Z,0
2018-04-11T04:45:48.943Z,0
2018-04-11T04:46:29.243Z,0
2018-04-11T04:47:09.698Z,0
2018-04-11T04:47:50.114Z,0
2018-04-11T04:48:30.504Z,0
2018-04-11T04:49:10.856Z,0
2018-04-11T04:49:51.243Z,0
2018-04-11T04:50:31.634Z,0
2018-04-11T04:51:12.100Z,0
2018-04-11T04:51:52.583Z,0
2018-04-11T04:52:32.973Z,0
2018-04-11T04:53:13.362Z,0
2018-04-11T04:53:53.721Z,0
2018-04-11T04:54:34.204Z,0
2018-04-11T04:55:14.620Z,0
2018-04-11T04:55:54.930Z,0
2018-04-11T04:56:35.431Z,0
2018-04-11T04:57:15.865Z,0
2018-04-11T04:57:56.327Z,0
2018-04-11T04:58:36.710Z,0
2018-04-11T04:59:17.155Z,0
2018-04-11T04:59:57.562Z,0
2018-04-11T05:00:37.915Z,0
2018-04-11T05:01:18.273Z,0
2018-04-11T05:01:59.778Z,0
2018-04-11T05:02:40.507Z,0
2018-04-11T05:03:21.818Z,0
2018-04-11T05:04:02.504Z,0
2018-04-11T05:04:43.016Z,0
2018-04-11T05:05:23.403Z,0
2018-04-11T05:06:03.858Z,0
2018-04-11T05:06:44.397Z,0
2018-04-11T05:07:26.288Z,0
2018-04-11T05:08:06.514Z,0
2018-04-11T05:08:46.962Z,0
2018-04-11T05:09:27.727Z,0
2018-04-11T05:10:09.098Z,0
2018-04-11T05:10:49.581Z,0
2018-04-11T05:11:30.046Z,0
2018-04-11T05:12:10.449Z,0
2018-04-11T05:12:51.429Z,0
2018-04-11T05:13:32.057Z,0
2018-04-11T05:14:12.602Z,0
2018-04-11T05:14:52.956Z,0
2018-04-11T05:15:33.345Z,0
2018-04-11T05:16:13.804Z,0
2018-04-11T05:16:54.203Z,0
2018-04-11T05:17:35.147Z,0
2018-04-11T05:18:17.408Z,0
2018-04-11T05:18:57.847Z,0
2018-04-11T05:19:38.319Z,0
2018-04-11T05:20:18.677Z,0
2018-04-11T05:20:59.081Z,0
2018-04-11T05:21:39.450Z,0
2018-04-11T05:22:19.886Z,0
2018-04-11T05:23:00.424Z,0
2018-04-11T05:23:40.746Z,0
2018-04-11T05:24:21.169Z,0
2018-04-11T05:25:01.632Z,0
2018-04-11T05:25:41.964Z,0
2018-04-11T05:26:22.337Z,0
2018-04-11T05:27:02.780Z,0
2018-04-11T05:27:43.142Z,0
2018-04-11T05:28:23.542Z,0
2018-04-11T05:29:03.926Z,0
2018-04-11T05:29:44.364Z,0
2018-04-11T05:30:24.769Z,0
2018-04-11T05:31:05.168Z,0
2018-04-11T05:31:45.550Z,0
2018-04-11T05:32:25.994Z,0
2018-04-11T05:33:06.292Z,0
2018-04-11T05:33:46.700Z,0
2018-04-11T05:34:27.158Z,0
2018-04-11T05:35:07.542Z,0
2018-04-11T05:35:48.000Z,0
2018-04-11T05:36:28.533Z,0
2018-04-11T05:37:08.872Z,0
2018-04-11T05:37:49.276Z,0
2018-04-11T05:38:29.666Z,0
2018-04-11T05:39:10.079Z,0
2018-04-11T05:39:50.472Z,0
2018-04-11T05:40:31.595Z,0
2018-04-11T05:41:11.971Z,0
2018-04-11T05:41:52.511Z,0
2018-04-11T05:42:32.835Z,0
2018-04-11T05:43:13.220Z,0
2018-04-11T05:43:53.670Z,0
2018-04-11T05:44:34.315Z,0
2018-04-11T05:45:14.682Z,0
2018-04-11T05:45:55.040Z,0
2018-04-11T05:46:35.519Z,0
2018-04-11T05:47:15.976Z,0
2018-04-11T05:47:56.425Z,0
2018-04-11T05:48:36.750Z,0
2018-04-11T05:49:17.239Z,0
2018-04-11T05:49:57.829Z,0
2018-04-11T05:50:38.276Z,0
2018-04-11T05:51:18.564Z,0
2018-04-11T05:51:59.164Z,0
2018-04-11T05:52:39.656Z,0
2018-04-11T05:53:20.212Z,0
2018-04-11T05:54:00.610Z,0
2018-04-11T05:54:41.323Z,0
2018-04-11T05:55:21.876Z,0
2018-04-11T05:56:02.104Z,0
2018-04-11T05:56:42.893Z,0
2018-04-11T05:57:23.124Z,0
2018-04-11T05:58:03.471Z,0
2018-04-11T05:58:43.922Z,0
2018-04-11T05:59:24.636Z,0
2018-04-11T06:00:05.308Z,0
2018-04-11T06:00:46.054Z,0
2018-04-11T06:01:26.573Z,0
2018-04-11T06:02:07.527Z,0
2018-04-11T06:02:48.658Z,0
2018-04-11T06:03:28.718Z,0
2018-04-11T06:04:09.492Z,0
2018-04-11T06:04:50.538Z,0
2018-04-11T06:06:22.640Z,0
2018-04-11T06:07:02.323Z,0
2018-04-11T06:07:43.559Z,0
2018-04-11T06:08:24.881Z,0
2018-04-11T06:09:05.422Z,0
2018-04-11T06:09:45.880Z,0
2018-04-11T06:10:26.718Z,0
2018-04-11T06:11:07.333Z,0
2018-04-11T07:11:14.010Z,0
2018-04-11T08:49:09.266Z,5
2018-04-11T08:49:49.853Z,5
2018-04-11T08:50:30.275Z,5
2018-04-11T08:51:11.523Z,5
2018-04-11T08:51:52.152Z,5
2018-04-11T08:52:32.886Z,5
2018-04-11T08:53:13.499Z,5
2018-04-11T08:53:55.370Z,5
2018-04-11T08:54:35.112Z,5
2018-04-11T08:55:15.848Z,5
2018-04-11T08:55:57.704Z,5
2018-04-11T08:56:37.696Z,5
2018-04-11T08:57:18.489Z,5
2018-04-11T08:57:59.214Z,5
2018-04-11T08:58:40.685Z,5
2018-04-11T08:59:20.335Z,5
2018-04-11T09:00:00.911Z,5
2018-04-11T09:00:41.449Z,5
2018-04-11T09:01:22.039Z,5
2018-04-11T09:02:02.932Z,5
2018-04-11T09:02:43.459Z,5
2018-04-11T09:03:23.915Z,5
2018-04-11T09:04:04.491Z,5
2018-04-11T09:04:45.179Z,5
2018-04-11T09:05:25.668Z,5
2018-04-11T09:06:06.073Z,5
2018-04-11T09:06:46.762Z,5
2018-04-11T09:07:27.218Z,5
2018-04-11T09:08:07.864Z,5
2018-04-11T09:08:48.144Z,5
2018-04-11T09:09:28.506Z,5
2018-04-11T09:10:09.878Z,5
2018-04-11T09:10:50.272Z,5
2018-04-11T09:11:30.726Z,5
2018-04-11T09:12:11.046Z,5
2018-04-11T09:12:51.582Z,5
2018-04-11T09:13:32.024Z,5
2018-04-11T09:14:12.436Z,5
2018-04-11T09:14:52.801Z,5
2018-04-11T09:15:34.324Z,5
2018-04-11T09:16:13.917Z,5
2018-04-11T09:16:54.380Z,5
2018-04-11T09:17:34.854Z,5
2018-04-11T09:18:15.643Z,5
2018-04-11T09:18:55.946Z,10
2018-04-11T09:19:36.472Z,10
2018-04-11T09:20:17.036Z,10
2018-04-11T09:20:57.213Z,10
2018-04-11T09:21:37.862Z,10
2018-04-11T09:22:18.557Z,10
2018-04-11T09:22:59.085Z,10
2018-04-11T09:23:40.673Z,10
2018-04-11T09:24:20.831Z,10
2018-04-11T09:25:01.555Z,10
2018-04-11T09:25:42.472Z,10
2018-04-11T09:26:22.886Z,10
2018-04-11T09:27:03.459Z,10
2018-04-11T09:27:44.161Z,10
2018-04-11T09:28:26.190Z,10
2018-04-11T09:29:06.328Z,10
2018-04-11T09:29:46.868Z,10
2018-04-11T09:30:27.872Z,10
2018-04-11T09:31:07.920Z,10
2018-04-11T09:31:48.327Z,10
2018-04-11T09:32:28.723Z,10
2018-04-11T09:33:09.294Z,10
2018-04-11T09:33:49.680Z,10
2018-04-11T09:34:30.400Z,10
2018-04-11T09:35:10.785Z,10
2018-04-11T09:35:51.439Z,10
2018-04-11T09:36:32.021Z,10
2018-04-11T09:37:12.501Z,10
2018-04-11T09:37:52.884Z,10
2018-04-11T09:38:33.515Z,10
2018-04-11T09:39:14.273Z,10
2018-04-11T09:39:55.041Z,10
2018-04-11T09:40:35.574Z,10
2018-04-11T09:41:16.071Z,10
2018-04-11T09:41:56.760Z,10
2018-04-11T09:42:37.088Z,10
2018-04-11T09:43:17.590Z,10
2018-04-11T09:43:58.035Z,10
2018-04-11T09:44:38.563Z,10
2018-04-11T09:45:19.069Z,10
2018-04-11T09:46:00.183Z,10
2018-04-11T09:46:41.171Z,10
2018-04-11T09:47:21.595Z,10
2018-04-11T09:48:02.529Z,15
2018-04-11T09:48:43.437Z,15
2018-04-11T09:49:24.256Z,15
2018-04-11T09:50:04.731Z,15
2018-04-11T09:50:45.178Z,15
2018-04-11T09:51:25.660Z,15
2018-04-11T09:52:06.089Z,15
2018-04-11T09:52:46.581Z,15
2018-04-11T09:53:27.073Z,15
2018-04-11T09:54:07.384Z,15
2018-04-11T09:54:47.865Z,15
2018-04-11T09:55:28.369Z,15
2018-04-11T09:56:08.787Z,15
2018-04-11T09:56:49.339Z,15
2018-04-11T09:57:30.714Z,15
2018-04-11T09:58:10.541Z,15
2018-04-11T09:58:50.957Z,15
2018-04-11T09:59:31.448Z,15
2018-04-11T10:00:11.877Z,15
2018-04-11T10:00:52.363Z,15
2018-04-11T10:01:32.884Z,15
2018-04-11T10:02:14.991Z,15
2018-04-11T10:02:55.438Z,15
2018-04-11T10:44:03.381Z,15
2018-04-11T10:44:44.409Z,15
2018-04-11T10:45:25.205Z,15
2018-04-11T10:46:06.048Z,15
2018-04-11T10:46:46.764Z,15
2018-04-11T10:47:27.124Z,15
2018-04-11T10:48:07.980Z,15
2018-04-11T10:48:49.387Z,10
2018-04-11T10:49:30.737Z,10
2018-04-11T10:50:11.240Z,10
2018-04-11T10:50:51.262Z,10
2018-04-11T10:53:07.279Z,15
2018-04-11T10:53:47.027Z,15
2018-04-11T10:54:27.559Z,15
2018-04-11T10:55:08.129Z,15
2018-04-11T10:55:48.684Z,15
2018-04-11T10:56:29.161Z,15
2018-04-11T10:57:09.498Z,10
2018-04-11T10:57:49.909Z,10
2018-04-11T10:58:30.325Z,10
2018-04-11T10:59:10.869Z,10
2018-04-11T10:59:51.473Z,10
2018-04-11T11:00:31.867Z,10
2018-04-11T11:01:12.287Z,10
2018-04-11T11:01:52.759Z,10
2018-04-11T11:02:33.172Z,10
2018-04-11T11:03:13.910Z,10
2018-04-11T11:03:54.369Z,10
2018-04-11T11:04:34.701Z,10
2018-04-11T11:05:16.198Z,10
2018-04-11T11:05:55.951Z,10
2018-04-11T11:06:36.372Z,10
2018-04-11T11:07:17.221Z,10
2018-04-11T11:07:57.462Z,10
2018-04-11T11:08:39.220Z,10
2018-04-11T11:09:18.335Z,10
2018-04-11T11:09:59.668Z,10
2018-04-11T11:10:39.397Z,10
2018-04-11T11:11:19.814Z,10
2018-04-11T11:12:00.230Z,10
2018-04-11T11:12:40.663Z,10
2018-04-11T11:13:21.057Z,10
2018-04-11T11:14:01.528Z,10
2018-04-11T11:14:42.718Z,10
2018-04-11T11:15:22.427Z,10
2018-04-11T11:16:03.681Z,10
2018-04-11T11:16:43.252Z,10
2018-04-11T11:17:23.651Z,10
2018-04-11T11:18:04.681Z,10
2018-04-11T11:18:44.761Z,10
2018-04-11T11:19:25.191Z,15
2018-04-11T11:20:05.628Z,15
2018-04-11T11:20:45.980Z,15
2018-04-11T11:21:26.370Z,15
2018-04-11T11:22:06.812Z,15
2018-04-11T11:22:47.335Z,15
2018-04-11T11:23:27.699Z,15
2018-04-11T11:24:08.136Z,20
2018-04-11T11:24:48.531Z,20
2018-04-11T11:25:28.956Z,20
2018-04-11T11:26:09.394Z,20
2018-04-11T11:26:49.744Z,20
2018-04-11T11:27:30.213Z,20
2018-04-11T11:28:10.648Z,25
2018-04-11T11:28:51.058Z,25
2018-04-11T11:29:31.776Z,25
2018-04-11T11:30:12.314Z,25
2018-04-11T11:35:15.441Z,40
2018-04-11T11:36:06.800Z,40
2018-04-11T11:36:50.964Z,45
2018-04-11T11:37:32.166Z,45
2018-04-11T11:38:12.936Z,45
2018-04-11T11:38:53.840Z,45
2018-04-11T11:39:34.286Z,45
2018-04-11T11:40:15.053Z,45
2018-04-11T11:40:55.134Z,45
2018-04-11T11:41:35.538Z,45
2018-04-11T11:42:15.963Z,45
2018-04-11T11:42:56.386Z,45
2018-04-11T11:43:36.844Z,45
2018-04-11T11:44:18.430Z,45
2018-04-11T11:44:59.024Z,40
2018-04-11T11:45:39.423Z,40
2018-04-11T11:46:23.437Z,40
2018-04-11T11:47:03.833Z,35
2018-04-11T11:47:44.284Z,35
2018-04-11T11:50:33.610Z,30
2018-04-11T11:52:56.446Z,30
2018-04-11T11:55:15.741Z,35
2018-04-11T11:56:06.945Z,35
2018-04-11T11:56:58.187Z,35
2018-04-11T11:57:48.624Z,40
2018-04-11T11:58:38.682Z,40
2018-04-11T11:59:23.347Z,40
2018-04-11T12:00:14.900Z,40
2018-04-11T12:00:53.723Z,45
2018-04-11T12:01:33.117Z,45
2018-04-11T12:02:13.624Z,45
2018-04-11T12:02:53.990Z,45
2018-04-11T12:03:34.423Z,45
2018-04-11T12:04:14.826Z,45
2018-04-11T12:04:55.223Z,45
2018-04-11T12:08:24.737Z,45
2018-04-11T12:09:03.241Z,45
2018-04-11T12:09:43.650Z,45
2018-04-11T12:10:24.056Z,45
2018-04-11T12:11:04.475Z,45
2018-04-11T12:11:44.855Z,45
2018-04-11T12:12:25.302Z,45
2018-04-11T12:13:05.750Z,45
2018-04-11T12:13:46.161Z,45
2018-04-11T12:14:26.587Z,45
2018-04-11T12:15:06.972Z,45
2018-04-11T12:15:47.403Z,45
2018-04-11T12:16:27.804Z,45
2018-04-11T12:17:08.288Z,40
2018-04-11T12:17:48.708Z,40
2018-04-11T12:18:29.098Z,40
2018-04-11T12:19:09.523Z,40
2018-04-11T12:19:49.953Z,40
2018-04-11T12:20:30.338Z,40
2018-04-11T12:21:10.742Z,40
2018-04-11T12:21:51.181Z,40
2018-04-11T12:22:31.559Z,35
2018-04-11T12:23:11.991Z,35
2018-04-11T12:23:52.338Z,35
2018-04-11T12:24:32.766Z,35
2018-04-11T12:25:13.165Z,35
2018-04-11T12:25:53.560Z,35
2018-04-11T12:28:14.484Z,35
2018-04-11T12:28:55.628Z,35
2018-04-11T12:29:36.061Z,35
2018-04-11T12:30:16.432Z,35
2018-04-11T12:30:56.859Z,30
2018-04-11T12:31:37.291Z,30
2018-04-11T12:32:17.661Z,30
2018-04-11T12:32:58.121Z,25
2018-04-11T12:33:38.797Z,25
2018-04-11T12:34:19.170Z,20
2018-04-11T12:34:59.574Z,20
2018-04-11T12:37:14.455Z,15
2018-04-11T12:37:54.988Z,15
2018-04-11T12:40:28.061Z,10
2018-04-11T12:41:08.475Z,10
2018-04-11T12:41:48.874Z,10
2018-04-11T12:42:29.255Z,10
2018-04-11T12:43:09.648Z,10
2018-04-11T12:45:47.756Z,10
2018-04-11T12:46:28.185Z,10
2018-04-11T12:47:08.607Z,10
2018-04-11T12:47:49.013Z,10
2018-04-11T12:48:29.686Z,10
2018-04-11T12:49:10.124Z,10
2018-04-11T12:49:50.571Z,10
2018-04-11T12:50:30.979Z,10
2018-04-11T12:52:50.886Z,10
2018-04-11T12:53:31.643Z,10
2018-04-11T12:54:12.049Z,10
2018-04-11T12:54:52.451Z,10
2018-04-11T12:55:32.861Z,10
2018-04-11T12:58:10.751Z,10
2018-04-11T12:58:51.179Z,10
2018-04-11T12:59:31.579Z,10
2018-04-11T13:00:12.007Z,10
2018-04-11T13:00:52.488Z,10
2018-04-11T13:01:32.851Z,10
2018-04-11T13:02:13.273Z,10
2018-04-11T13:04:32.175Z,10
2018-04-11T13:05:12.590Z,10
2018-04-11T13:05:53.030Z,10
2018-04-11T13:06:33.521Z,15
2018-04-11T13:07:13.920Z,15
2018-04-11T13:07:54.406Z,15
2018-04-11T13:08:34.889Z,15
2018-04-11T13:09:15.364Z,15
2018-04-11T13:09:55.787Z,20
2018-04-11T13:12:29.397Z,25
2018-04-11T13:13:10.530Z,25
2018-04-11T13:13:50.478Z,25
2018-04-11T13:14:30.895Z,25
2018-04-11T13:15:11.379Z,25
2018-04-11T13:17:46.982Z,25
2018-04-11T13:18:27.463Z,25
2018-04-11T13:19:07.827Z,25
2018-04-11T13:21:45.890Z,25
2018-04-11T13:22:26.296Z,25
2018-04-11T13:23:06.710Z,25
2018-04-11T13:23:47.148Z,25
2018-04-11T13:24:27.587Z,25
2018-04-11T13:25:08.247Z,25
2018-04-11T13:25:48.703Z,25
2018-04-11T13:26:29.309Z,25
2018-04-11T13:27:09.772Z,25
2018-04-11T13:27:50.169Z,25
2018-04-11T13:28:31.168Z,20
2018-04-11T13:29:11.267Z,20
2018-04-11T13:29:52.369Z,20
2018-04-11T13:30:32.975Z,20
2018-04-11T13:31:13.516Z,20
2018-04-11T13:31:53.910Z,20
2018-04-11T13:32:34.304Z,20
2018-04-11T13:33:14.706Z,20
2018-04-11T13:33:55.116Z,25
2018-04-11T13:34:35.521Z,25
2018-04-11T13:35:15.950Z,25
2018-04-11T13:35:56.362Z,25
2018-04-11T13:36:36.792Z,25
2018-04-11T13:37:17.657Z,25
2018-04-11T13:37:57.759Z,25
2018-04-11T13:38:38.455Z,25
2018-04-11T13:39:18.849Z,25
2018-04-11T13:41:56.394Z,25
2018-04-11T13:42:37.020Z,30
2018-04-11T13:43:17.774Z,30
2018-04-11T13:43:58.617Z,30
2018-04-11T13:44:39.026Z,30
2018-04-11T13:45:19.476Z,30
2018-04-11T13:45:59.825Z,30
2018-04-11T13:46:40.242Z,30
2018-04-11T13:48:57.967Z,30
2018-04-11T13:49:38.409Z,25
2018-04-11T13:50:18.848Z,25
2018-04-11T13:51:00.280Z,25
2018-04-11T13:51:40.253Z,25
2018-04-11T13:52:20.625Z,25
2018-04-11T13:53:01.908Z,25
2018-04-11T13:53:42.160Z,25
2018-04-11T13:54:22.548Z,25
2018-04-11T13:55:02.987Z,25
2018-04-11T13:55:43.450Z,25
2018-04-11T13:56:23.854Z,25
2018-04-11T13:57:04.211Z,25
2018-04-11T13:57:44.671Z,25
2018-04-11T13:58:25.141Z,25
2018-04-11T13:59:05.560Z,20
2018-04-11T13:59:46.182Z,20
2018-04-11T14:00:26.564Z,20
2018-04-11T14:01:07.143Z,20
2018-04-11T14:01:47.566Z,20
2018-04-11T14:02:28.068Z,20
2018-04-11T14:03:08.411Z,20
2018-04-11T14:03:48.866Z,20
2018-04-11T14:04:29.253Z,20
2018-04-11T14:05:09.712Z,20
2018-04-11T14:05:50.123Z,20
2018-04-11T14:06:30.500Z,20
2018-04-11T14:07:10.893Z,20
2018-04-11T14:07:51.290Z,20
2018-04-11T14:08:31.734Z,20
2018-04-11T14:09:12.183Z,20
2018-04-11T14:09:52.651Z,20
2018-04-11T14:10:33.078Z,20
2018-04-11T14:11:13.456Z,20
2018-04-11T14:11:54.362Z,20
2018-04-11T14:12:34.511Z,20
2018-04-11T14:13:15.236Z,20
2018-04-11T14:15:33.934Z,20
2018-04-11T14:16:14.332Z,20
2018-04-11T14:16:54.876Z,20
2018-04-11T14:17:35.282Z,20
2018-04-11T14:18:15.707Z,25
2018-04-11T14:18:56.183Z,25
2018-04-11T14:19:36.583Z,25
2018-04-11T14:20:17.002Z,25
2018-04-11T14:20:57.351Z,25
2018-04-11T14:21:37.739Z,25
2018-04-11T14:22:18.144Z,25
2018-04-11T14:22:58.629Z,25
2018-04-11T14:23:39.014Z,25
2018-04-11T14:24:19.415Z,25
2018-04-11T14:24:59.791Z,25
2018-04-11T14:25:40.252Z,25
2018-04-11T14:26:20.601Z,25
2018-04-11T14:27:01.006Z,25
2018-04-11T14:27:41.449Z,25
2018-04-11T14:28:22.008Z,25
2018-04-11T14:29:02.771Z,25